Time;durP1;ratioP1;P1;durP2;ratioP2;P2;SDS_P1;SDS_P2;PMS_P1;PMS_P2;Temp;Humidity;BMP_temperature;BMP_pressure;BME280_temperature;BME280_humidity;BME280_pressure;Samples;Min_cycle;Max_cycle;Signal;HPM_P1;HPM_P2
2022/09/21 00:00:24;;;;;;;;;;;;;;;9.85;73.67;100702.63;1087422;54;19951;-81
2022/09/21 00:01:29;;;;;;;;;;;;;;;9.84;73.72;100706.28;1087192;54;19946;-81
2022/09/21 00:02:30;;;;;;;;;;;;;;;9.86;73.53;100704.34;1087209;54;19973;-82
2022/09/21 00:03:34;;;;;;;;;;;;;;;9.81;73.89;100707.38;1087279;54;19947;-81
2022/09/21 00:04:38;;;;;;;;;;;;;;;9.77;74.31;100708.59;1087562;47;19994;-81
2022/09/21 00:05:42;;;;;;;;;;;;;;;9.74;74.49;100706.16;1086956;54;20448;-81
2022/09/21 00:06:46;;;;;;;;;;;;;;;9.75;74.04;100699.84;1087002;54;19949;-80
2022/09/21 00:07:48;;;;;;;;;;;;;;;9.72;74.79;100708.13;1086826;54;19950;-81
2022/09/21 00:08:52;;;;;;;;;;;;;;;9.74;74.55;100703.47;1087077;54;19945;-81
2022/09/21 00:09:53;;;;;;;;;;;;;;;9.76;74.10;100706.03;1087204;54;20449;-80
2022/09/21 00:10:57;;;;;;;;;;;;;;;9.75;74.59;100712.34;1087002;54;19945;-80
2022/09/21 00:11:58;;;;;;;;;;;;;;;9.69;74.96;100705.69;1087077;54;19958;-81
2022/09/21 00:13:03;;;;;;;;;;;;;;;9.61;75.55;100708.13;1086896;54;19938;-80
2022/09/21 00:14:06;;;;;;;;;;;;;;;9.60;75.35;100711.75;1086695;54;19952;-80
2022/09/21 00:15:13;;;;;;;;;;;;;;;9.56;75.67;100708.50;1086606;54;19938;-80
2022/09/21 00:16:15;;;;;;;;;;;;;;;9.67;74.86;100707.63;1086362;54;19947;-80
2022/09/21 00:17:19;;;;;;;;;;;;;;;9.71;74.72;100709.09;1086607;54;19973;-81
2022/09/21 00:18:20;;;;;;;;;;;;;;;9.77;74.26;100715.75;1086643;54;19950;-80
2022/09/21 00:19:24;;;;;;;;;;;;;;;9.76;74.47;100714.06;1087195;39;20459;-81
2022/09/21 00:20:25;;;;;;;;;;;;;;;9.60;75.47;100720.59;1087006;54;19946;-82
2022/09/21 00:21:33;;;;;;;;;;;;;;;9.55;75.85;100706.78;1087001;54;19950;-81
2022/09/21 00:22:34;;;;;;;;;;;;;;;9.45;75.81;100703.97;1087299;54;19939;-81
2022/09/21 00:23:46;;;;;;;;;;;;;;;9.38;75.83;100705.44;1086927;54;19969;-80
2022/09/21 00:24:47;;;;;;;;;;;;;;;9.35;76.39;100706.53;1086954;54;19950;-80
2022/09/21 00:25:51;;;;;;;;;;;;;;;9.30;76.58;100715.88;1089047;39;20531;-81
2022/09/21 00:26:52;;;;;;;;;;;;;;;9.28;76.42;100709.81;1086548;54;19957;-79
2022/09/21 00:27:56;;;;;;;;;;;;;;;9.24;76.74;100713.69;1086501;39;20378;-80
2022/09/21 00:28:58;;;;;;;;;;;;;;;9.23;76.70;100706.66;1086689;54;19950;-80
2022/09/21 00:30:08;;;;;;;;;;;;;;;9.17;76.90;100716.00;1087654;54;19935;-81
2022/09/21 00:31:10;;;;;;;;;;;;;;;9.13;77.28;100712.72;1090545;47;19961;-81
2022/09/21 00:35:16;;;;;;;;;;;;;;;8.76;78.68;100715.53;1088111;54;19927;-82
2022/09/21 00:36:18;;;;;;;;;;;;;;;8.70;78.69;100710.66;1088064;54;19943;-81
2022/09/21 00:37:38;;;;;;;;;;;;;;;8.64;78.91;100704.00;1088929;47;19979;-81
2022/09/21 00:38:39;;;;;;;;;;;;;;;8.60;79.34;100709.69;1088015;54;19939;-81
2022/09/21 00:39:43;;;;;;;;;;;;;;;8.53;79.36;100715.44;1088029;47;19954;-80
2022/09/21 00:40:44;;;;;;;;;;;;;;;8.55;79.66;100715.31;1086834;39;20319;-80
2022/09/21 00:41:52;;;;;;;;;;;;;;;8.57;79.50;100718.72;1086975;54;19950;-81
2022/09/21 00:42:53;;;;;;;;;;;;;;;8.54;79.15;100714.50;1086581;54;19974;-80
2022/09/21 00:44:14;;;;;;;;;;;;;;;8.53;79.06;100712.78;1086505;54;20613;-80
2022/09/21 00:45:20;;;;;;;;;;;;;;;8.51;79.14;100714.72;1086041;54;20555;-82
2022/09/21 00:46:28;;;;;;;;;;;;;;;8.50;79.19;100720.16;1086131;54;21587;-80
2022/09/21 00:47:32;;;;;;;;;;;;;;;8.42;79.39;100715.38;1086485;54;19977;-81
2022/09/21 00:48:35;;;;;;;;;;;;;;;8.36;79.68;100721.16;1086062;54;19989;-81
2022/09/21 00:49:38;;;;;;;;;;;;;;;8.35;79.92;100719.47;1086424;54;19938;-82
2022/09/21 00:50:43;;;;;;;;;;;;;;;8.33;80.08;100722.25;1086417;54;19951;-81
2022/09/21 00:51:45;;;;;;;;;;;;;;;8.33;79.80;100713.38;1086047;54;19939;-80
2022/09/21 00:52:53;;;;;;;;;;;;;;;8.32;80.04;100725.00;1085645;54;20571;-81
2022/09/21 00:53:57;;;;;;;;;;;;;;;8.26;80.16;100718.34;1086649;54;20516;-81
2022/09/21 00:55:04;;;;;;;;;;;;;;;8.33;79.90;100721.38;1086735;54;19950;-80
2022/09/21 00:56:05;;;;;;;;;;;;;;;8.30;79.71;100727.78;1086272;54;19950;-80
2022/09/21 00:57:10;;;;;;;;;;;;;;;8.26;80.09;100721.00;1086511;54;19991;-80
2022/09/21 00:58:13;;;;;;;;;;;;;;;8.25;79.77;100720.16;1086387;54;20613;-81
2022/09/21 00:59:19;;;;;;;;;;;;;;;8.27;79.82;100720.88;1086585;54;19958;-80
2022/09/21 01:00:20;;;;;;;;;;;;;;;8.32;79.53;100725.88;1086835;54;19951;-80
2022/09/21 01:01:24;;;;;;;;;;;;;;;8.44;79.20;100721.44;1086317;54;19950;-82
2022/09/21 01:02:25;;;;;;;;;;;;;;;8.50;78.64;100725.50;1086864;54;19950;-81
2022/09/21 01:03:29;;;;;;;;;;;;;;;8.47;78.46;100723.91;1087110;39;20378;-82
2022/09/21 01:04:31;;;;;;;;;;;;;;;8.37;79.07;100721.03;1086553;54;19971;-81
2022/09/21 01:05:35;;;;;;;;;;;;;;;8.28;79.34;100716.41;1086182;54;19999;-80
2022/09/21 01:06:37;;;;;;;;;;;;;;;8.23;79.96;100722.06;1086598;54;19950;-80
2022/09/21 01:07:42;;;;;;;;;;;;;;;8.24;80.16;100721.09;1086587;54;20472;-81
2022/09/21 01:08:51;;;;;;;;;;;;;;;8.37;79.87;100720.22;1086345;54;19977;-80
2022/09/21 01:09:58;;;;;;;;;;;;;;;8.41;79.65;100716.34;1086650;54;19972;-81
2022/09/21 01:11:12;;;;;;;;;;;;;;;8.35;79.77;100724.78;1086755;54;20002;-80
2022/09/21 01:12:25;;;;;;;;;;;;;;;8.36;79.99;100721.16;1086314;54;19950;-81
2022/09/21 01:13:29;;;;;;;;;;;;;;;8.32;80.20;100725.00;1086463;54;19976;-81
2022/09/21 01:14:41;;;;;;;;;;;;;;;8.31;80.11;100718.84;1087293;46;19947;-80
2022/09/21 01:15:49;;;;;;;;;;;;;;;8.28;80.21;100717.25;1086452;54;20512;-80
2022/09/21 01:17:01;;;;;;;;;;;;;;;8.23;80.63;100723.88;1086327;54;20493;-80
2022/09/21 01:18:08;;;;;;;;;;;;;;;8.19;80.89;100717.94;1086381;54;19950;-79
2022/09/21 01:19:21;;;;;;;;;;;;;;;8.20;81.06;100713.44;1086602;54;19945;-81
2022/09/21 01:20:41;;;;;;;;;;;;;;;8.22;80.91;100724.84;1086639;46;19975;-81
2022/09/21 01:21:50;;;;;;;;;;;;;;;8.26;80.75;100713.84;1086414;54;19953;-82
2022/09/21 01:23:02;;;;;;;;;;;;;;;8.28;80.52;100721.72;1086601;54;19950;-80
2022/09/21 01:24:24;;;;;;;;;;;;;;;8.31;80.51;100720.66;1087696;39;20365;-81
2022/09/21 01:25:31;;;;;;;;;;;;;;;8.34;79.86;100718.63;1086990;54;19951;-79
2022/09/21 01:26:46;;;;;;;;;;;;;;;8.43;79.49;100720.59;1087134;54;20009;-81
2022/09/21 01:28:03;;;;;;;;;;;;;;;8.56;79.28;100719.69;1087855;39;20427;-81
2022/09/21 01:29:18;;;;;;;;;;;;;;;8.61;78.63;100714.03;1086918;54;19973;-80
2022/09/21 01:30:23;;;;;;;;;;;;;;;8.61;78.66;100714.88;1086750;54;19966;-81
2022/09/21 01:31:26;;;;;;;;;;;;;;;8.64;78.60;100727.13;1086938;54;19935;-80
2022/09/21 01:32:31;;;;;;;;;;;;;;;8.67;78.37;100721.56;1087408;54;19943;-79
2022/09/21 01:33:36;;;;;;;;;;;;;;;8.68;77.87;100718.78;1087035;54;19953;-81
2022/09/21 01:34:43;;;;;;;;;;;;;;;8.71;77.87;100718.56;1086951;54;19951;-81
2022/09/21 01:35:47;;;;;;;;;;;;;;;8.71;78.03;100715.03;1086790;54;19953;-81
2022/09/21 01:36:55;;;;;;;;;;;;;;;8.76;77.74;100720.00;1087628;39;20497;-81
2022/09/21 01:37:58;;;;;;;;;;;;;;;8.77;77.37;100725.25;1086760;54;20523;-80
2022/09/21 01:39:05;;;;;;;;;;;;;;;8.79;77.35;100720.63;1086960;54;19953;-81
2022/09/21 01:40:10;;;;;;;;;;;;;;;8.80;77.46;100730.31;1086933;54;19950;-81
2022/09/21 01:41:15;;;;;;;;;;;;;;;8.82;77.30;100728.41;1087123;46;20512;-79
2022/09/21 01:42:17;;;;;;;;;;;;;;;8.82;77.36;100727.56;1086918;54;19973;-81
2022/09/21 01:43:24;;;;;;;;;;;;;;;8.85;77.12;100729.97;1086864;54;19958;-80
2022/09/21 01:44:32;;;;;;;;;;;;;;;8.76;77.23;100736.88;1086502;54;19950;-80
2022/09/21 01:45:39;;;;;;;;;;;;;;;8.66;77.81;100733.19;1086870;54;19946;-81
2022/09/21 01:46:41;;;;;;;;;;;;;;;8.52;78.51;100731.56;1086782;54;20426;-80
2022/09/21 01:47:48;;;;;;;;;;;;;;;8.44;79.27;100737.44;1087060;54;19950;-79
2022/09/21 01:48:51;;;;;;;;;;;;;;;8.37;79.44;100730.88;1086078;54;20002;-80
2022/09/21 01:49:57;;;;;;;;;;;;;;;8.38;79.67;100735.22;1086423;54;19969;-81
2022/09/21 01:51:00;;;;;;;;;;;;;;;8.41;79.33;100732.31;1086807;54;20249;-80
2022/09/21 01:52:10;;;;;;;;;;;;;;;8.43;79.39;100736.59;1086555;54;19954;-79
2022/09/21 01:53:15;;;;;;;;;;;;;;;8.40;79.30;100731.47;1086741;54;19950;-80
2022/09/21 01:54:21;;;;;;;;;;;;;;;8.42;79.24;100724.22;1086496;54;19965;-80
2022/09/21 01:55:26;;;;;;;;;;;;;;;8.42;79.22;100728.69;1086789;54;19953;-81
2022/09/21 01:56:34;;;;;;;;;;;;;;;8.40;79.22;100725.31;1086745;54;20102;-80
2022/09/21 01:57:39;;;;;;;;;;;;;;;8.43;79.11;100736.59;1087005;54;19947;-80
2022/09/21 01:58:46;;;;;;;;;;;;;;;8.47;79.08;100729.25;1086987;54;19953;-81
2022/09/21 01:59:52;;;;;;;;;;;;;;;8.47;79.00;100726.59;1086733;54;19946;-80
2022/09/21 02:00:58;;;;;;;;;;;;;;;8.51;79.02;100727.19;1086728;54;19970;-81
2022/09/21 02:02:03;;;;;;;;;;;;;;;8.49;78.87;100732.66;1086940;54;19950;-81
2022/09/21 02:03:11;;;;;;;;;;;;;;;8.50;78.98;100733.50;1087045;54;19951;-80
2022/09/21 02:04:12;;;;;;;;;;;;;;;8.54;78.96;100726.97;1086552;54;19942;-80
2022/09/21 02:05:18;;;;;;;;;;;;;;;8.50;78.74;100730.81;1087050;39;20388;-80
2022/09/21 02:06:19;;;;;;;;;;;;;;;8.49;78.90;100730.00;1086755;54;19951;-80
2022/09/21 02:07:23;;;;;;;;;;;;;;;8.49;79.00;100724.66;1086620;54;19934;-80
2022/09/21 02:08:25;;;;;;;;;;;;;;;8.51;78.90;100735.19;1086600;54;20645;-80
2022/09/21 02:09:29;;;;;;;;;;;;;;;8.55;78.60;100723.31;1086724;54;19947;-81
2022/09/21 02:10:32;;;;;;;;;;;;;;;8.54;79.00;100727.81;1086720;54;19946;-80
2022/09/21 02:11:37;;;;;;;;;;;;;;;8.53;78.87;100736.78;1086502;54;19993;-80
2022/09/21 02:12:39;;;;;;;;;;;;;;;8.52;79.14;100729.75;1086649;54;19951;-80
2022/09/21 02:13:46;;;;;;;;;;;;;;;8.54;79.14;100730.47;1086465;54;19950;-80
2022/09/21 02:14:54;;;;;;;;;;;;;;;8.50;78.74;100725.50;1086288;54;19958;-80
2022/09/21 02:16:04;;;;;;;;;;;;;;;8.49;79.31;100723.78;1086482;54;19935;-80
2022/09/21 02:17:13;;;;;;;;;;;;;;;8.48;79.31;100733.63;1086524;54;20479;-80
2022/09/21 02:18:22;;;;;;;;;;;;;;;8.49;79.03;100727.31;1089005;39;20427;-80
2022/09/21 02:19:27;;;;;;;;;;;;;;;8.56;78.86;100725.91;1086679;54;19946;-80
2022/09/21 02:20:33;;;;;;;;;;;;;;;8.60;78.35;100731.00;1086663;54;19951;-81
2022/09/21 02:21:40;;;;;;;;;;;;;;;8.60;78.53;100726.50;1085279;54;19934;-80
2022/09/21 02:22:50;;;;;;;;;;;;;;;8.63;78.44;100728.09;1086059;54;19947;-79
2022/09/21 02:23:56;;;;;;;;;;;;;;;8.66;77.93;100725.19;1085249;54;19970;-80
2022/09/21 02:25:05;;;;;;;;;;;;;;;8.69;77.76;100716.97;1085715;54;20639;-79
2022/09/21 02:26:08;;;;;;;;;;;;;;;8.69;77.62;100720.47;1085304;54;19947;-80
2022/09/21 02:27:20;;;;;;;;;;;;;;;8.64;77.89;100721.78;1085646;54;19950;-80
2022/09/21 02:28:26;;;;;;;;;;;;;;;8.63;77.86;100720.97;1085721;54;19976;-79
2022/09/21 02:29:33;;;;;;;;;;;;;;;8.66;77.88;100719.88;1085305;54;19978;-79
2022/09/21 02:30:42;;;;;;;;;;;;;;;8.65;77.61;100712.84;1084994;39;20639;-79
2022/09/21 02:31:48;;;;;;;;;;;;;;;8.66;77.41;100714.53;1086516;54;20369;-79
2022/09/21 02:32:57;;;;;;;;;;;;;;;8.69;77.46;100719.66;1086628;54;20039;-79
2022/09/21 02:34:01;;;;;;;;;;;;;;;8.71;77.40;100720.34;1084867;54;19946;-79
2022/09/21 02:35:08;;;;;;;;;;;;;;;8.71;77.35;100718.56;1084966;54;19947;-79
2022/09/21 02:36:11;;;;;;;;;;;;;;;8.70;77.10;100716.00;1084864;54;19974;-79
2022/09/21 02:37:21;;;;;;;;;;;;;;;8.67;77.56;100722.41;1084661;54;19946;-79
2022/09/21 02:38:25;;;;;;;;;;;;;;;8.67;77.20;100716.25;1084697;54;19951;-79
2022/09/21 02:39:34;;;;;;;;;;;;;;;8.65;77.66;100723.50;1084634;54;19951;-79
2022/09/21 02:40:38;;;;;;;;;;;;;;;8.58;77.64;100723.09;1084054;54;19973;-79
2022/09/21 02:41:50;;;;;;;;;;;;;;;8.61;77.23;100717.56;1084609;39;20460;-79
2022/09/21 02:42:55;;;;;;;;;;;;;;;8.63;77.28;100730.75;1085967;31;20500;-79
2022/09/21 02:44:01;;;;;;;;;;;;;;;8.61;77.21;100717.56;1084305;54;19958;-79
2022/09/21 02:45:06;;;;;;;;;;;;;;;8.58;77.14;100721.31;1083778;54;19998;-80
2022/09/21 02:46:14;;;;;;;;;;;;;;;8.60;77.45;100728.34;1084618;54;19977;-78
2022/09/21 02:47:19;;;;;;;;;;;;;;;8.60;77.28;100729.19;1084826;54;19958;-79
2022/09/21 02:48:25;;;;;;;;;;;;;;;8.56;77.78;100725.91;1084852;47;19950;-79
2022/09/21 02:49:30;;;;;;;;;;;;;;;8.55;77.78;100723.31;1084518;54;19969;-79
2022/09/21 02:50:37;;;;;;;;;;;;;;;8.56;77.79;100725.91;1084637;54;19946;-80
2022/09/21 02:51:41;;;;;;;;;;;;;;;8.57;77.60;100729.41;1084164;54;19981;-79
2022/09/21 02:52:45;;;;;;;;;;;;;;;8.56;77.71;100720.56;1084433;54;19951;-80
2022/09/21 02:53:48;;;;;;;;;;;;;;;8.56;77.42;100725.03;1084450;54;19947;-78
2022/09/21 02:54:54;;;;;;;;;;;;;;;8.54;77.77;100730.47;1084357;54;20021;-79
2022/09/21 02:55:57;;;;;;;;;;;;;;;8.53;77.75;100728.78;1084273;54;20002;-79
2022/09/21 02:57:02;;;;;;;;;;;;;;;8.53;77.39;100735.94;1084784;54;19947;-79
2022/09/21 02:58:04;;;;;;;;;;;;;;;8.52;77.29;100736.91;1084424;54;19973;-80
2022/09/21 02:59:08;;;;;;;;;;;;;;;8.48;77.41;100735.41;1085168;39;20353;-79
2022/09/21 03:00:10;;;;;;;;;;;;;;;8.45;77.47;100733.81;1084548;54;19946;-79
2022/09/21 03:01:18;;;;;;;;;;;;;;;8.45;77.58;100732.97;1084505;54;19958;-79
2022/09/21 03:02:19;;;;;;;;;;;;;;;8.42;77.78;100731.34;1084324;54;19969;-79
2022/09/21 03:03:25;;;;;;;;;;;;;;;8.39;77.84;100732.44;1084739;39;20191;-79
2022/09/21 03:04:26;;;;;;;;;;;;;;;8.37;77.62;100730.88;1084538;54;19950;-79
2022/09/21 03:05:31;;;;;;;;;;;;;;;8.38;77.46;100729.91;1084444;54;19954;-79
2022/09/21 03:06:33;;;;;;;;;;;;;;;8.35;77.81;100724.78;1084872;39;20373;-79
2022/09/21 03:07:36;;;;;;;;;;;;;;;8.36;77.50;100731.81;1084323;54;19958;-79
2022/09/21 03:08:37;;;;;;;;;;;;;;;8.39;77.36;100732.44;1084705;39;20338;-79
2022/09/21 03:09:41;;;;;;;;;;;;;;;8.38;77.30;100728.06;1084327;54;19977;-79
2022/09/21 03:10:42;;;;;;;;;;;;;;;8.40;77.13;100725.31;1085501;39;20389;-79
2022/09/21 03:11:46;;;;;;;;;;;;;;;8.37;76.95;100731.69;1084254;54;19958;-79
2022/09/21 03:12:47;;;;;;;;;;;;;;;8.41;76.90;100721.66;1084971;39;20255;-79
2022/09/21 03:13:51;;;;;;;;;;;;;;;8.42;77.07;100729.56;1084307;54;20521;-79
2022/09/21 03:14:52;;;;;;;;;;;;;;;8.44;76.76;100734.75;1084253;54;19962;-79
2022/09/21 03:16:00;;;;;;;;;;;;;;;8.46;77.03;100739.97;1084418;54;19985;-79
2022/09/21 03:17:04;;;;;;;;;;;;;;;8.32;77.39;100735.66;1084155;54;19946;-80
2022/09/21 03:18:10;;;;;;;;;;;;;;;8.12;78.44;100736.19;1084467;39;20495;-78
2022/09/21 03:19:11;;;;;;;;;;;;;;;8.07;78.83;100740.13;1084286;54;19950;-79
2022/09/21 03:20:15;;;;;;;;;;;;;;;7.95;79.24;100737.41;1084648;54;19973;-79
2022/09/21 03:21:16;;;;;;;;;;;;;;;7.90;79.86;100736.03;1083829;54;19946;-79
2022/09/21 03:22:20;;;;;;;;;;;;;;;7.82;80.38;100736.59;1084173;54;20445;-79
2022/09/21 03:23:21;;;;;;;;;;;;;;;7.81;80.53;100741.06;1085492;39;20334;-79
2022/09/21 03:25:51;;;;;;;;;;;;;;;7.75;80.55;100745.97;1084537;54;19946;-79
2022/09/21 03:26:52;;;;;;;;;;;;;;;7.71;80.93;100747.16;1087317;54;19951;-80
2022/09/21 03:27:57;;;;;;;;;;;;;;;7.64;81.32;100744.94;1087511;54;19953;-79
2022/09/21 03:28:58;;;;;;;;;;;;;;;7.57;81.70;100750.78;1087443;47;20397;-79
2022/09/21 03:30:02;;;;;;;;;;;;;;;7.54;81.75;100748.34;1087395;54;19923;-79
2022/09/21 03:31:03;;;;;;;;;;;;;;;7.55;82.15;100745.59;1087424;47;19950;-79
2022/09/21 03:32:09;;;;;;;;;;;;;;;7.54;82.28;100758.97;1087494;54;19990;-79
2022/09/21 03:33:11;;;;;;;;;;;;;;;7.49;82.20;100756.66;1087344;54;19977;-79
2022/09/21 03:34:17;;;;;;;;;;;;;;;7.50;82.19;100758.34;1087440;54;19943;-79
2022/09/21 03:35:20;;;;;;;;;;;;;;;7.52;82.23;100758.22;1086838;54;19946;-79
2022/09/21 03:36:24;;;;;;;;;;;;;;;7.54;81.69;100756.31;1085310;46;19950;-79
2022/09/21 03:37:25;;;;;;;;;;;;;;;7.57;81.38;100748.97;1084162;54;19953;-80
2022/09/21 03:38:29;;;;;;;;;;;;;;;7.59;81.36;100756.88;1084037;54;19969;-79
2022/09/21 03:39:30;;;;;;;;;;;;;;;7.60;81.42;100754.09;1084007;54;19981;-79
2022/09/21 03:40:34;;;;;;;;;;;;;;;7.60;81.22;100756.75;1084148;54;19946;-79
2022/09/21 03:41:35;;;;;;;;;;;;;;;7.57;80.93;100754.28;1084203;54;19969;-78
2022/09/21 03:42:39;;;;;;;;;;;;;;;7.53;81.38;100754.63;1084189;54;19946;-80
2022/09/21 03:43:40;;;;;;;;;;;;;;;7.49;81.45;100760.16;1084429;39;20626;-78
2022/09/21 03:44:43;;;;;;;;;;;;;;;7.42;81.57;100760.69;1084131;54;19958;-79
2022/09/21 03:45:46;;;;;;;;;;;;;;;7.39;81.83;100755.56;1084221;39;20766;-79
2022/09/21 03:46:50;;;;;;;;;;;;;;;7.38;81.89;100764.50;1085229;31;20390;-79
2022/09/21 03:47:54;;;;;;;;;;;;;;;7.34;81.64;100758.56;1084547;39;20451;-79
2022/09/21 03:48:58;;;;;;;;;;;;;;;7.30;82.17;100763.25;1084177;54;20446;-79
2022/09/21 03:49:59;;;;;;;;;;;;;;;7.31;82.18;100764.94;1084567;39;20357;-79
2022/09/21 03:51:03;;;;;;;;;;;;;;;7.30;81.79;100759.75;1083956;54;19959;-79
2022/09/21 03:52:04;;;;;;;;;;;;;;;7.30;81.88;100760.59;1084063;54;19954;-79
2022/09/21 03:53:09;;;;;;;;;;;;;;;7.34;81.54;100756.78;1084250;54;20046;-79
2022/09/21 03:54:10;;;;;;;;;;;;;;;7.37;81.77;100754.84;1084428;54;19945;-79
2022/09/21 03:55:13;;;;;;;;;;;;;;;7.30;81.74;100762.41;1084147;54;19947;-79
2022/09/21 03:56:14;;;;;;;;;;;;;;;7.24;82.07;100758.34;1084081;54;19962;-80
2022/09/21 03:57:18;;;;;;;;;;;;;;;7.20;82.36;100762.16;1084329;54;20884;-79
2022/09/21 03:58:20;;;;;;;;;;;;;;;7.20;82.39;100762.16;1083940;54;20453;-78
2022/09/21 03:59:24;;;;;;;;;;;;;;;7.17;82.15;100757.91;1084103;54;19946;-79
2022/09/21 04:00:26;;;;;;;;;;;;;;;7.16;82.60;100760.69;1083949;54;20465;-79
2022/09/21 04:01:30;;;;;;;;;;;;;;;7.17;82.54;100759.75;1084111;54;19957;-79
2022/09/21 04:02:31;;;;;;;;;;;;;;;7.20;82.43;100766.66;1084214;54;19956;-80
2022/09/21 04:03:37;;;;;;;;;;;;;;;7.19;82.24;100763.13;1084085;54;19951;-79
2022/09/21 04:04:38;;;;;;;;;;;;;;;7.20;82.20;100764.84;1084070;54;19950;-79
2022/09/21 04:05:42;;;;;;;;;;;;;;;7.21;82.00;100763.03;1084412;39;20845;-79
2022/09/21 04:06:45;;;;;;;;;;;;;;;7.18;82.32;100761.41;1083935;54;19959;-79
2022/09/21 04:07:48;;;;;;;;;;;;;;;7.17;82.18;100763.25;1084291;54;19969;-79
2022/09/21 04:08:52;;;;;;;;;;;;;;;7.18;81.83;100761.41;1083885;54;19981;-79
2022/09/21 04:09:55;;;;;;;;;;;;;;;7.17;82.08;100765.06;1083932;54;19946;-79
2022/09/21 04:10:57;;;;;;;;;;;;;;;7.17;81.78;100760.59;1084774;39;20385;-78
2022/09/21 04:12:00;;;;;;;;;;;;;;;7.12;82.11;100761.84;1084299;54;19954;-79
2022/09/21 04:13:02;;;;;;;;;;;;;;;7.14;82.51;100762.59;1084204;54;19950;-79
2022/09/21 04:14:06;;;;;;;;;;;;;;;7.11;82.44;100762.81;1084670;39;20673;-78
2022/09/21 04:15:10;;;;;;;;;;;;;;;7.09;82.35;100760.25;1084018;54;19974;-79
2022/09/21 04:16:13;;;;;;;;;;;;;;;7.10;82.31;100763.75;1084263;54;19950;-81
2022/09/21 04:17:15;;;;;;;;;;;;;;;7.11;82.42;100762.81;1084302;47;20026;-78
2022/09/21 04:18:18;;;;;;;;;;;;;;;7.14;82.27;100767.91;1084602;39;20294;-78
2022/09/21 04:19:22;;;;;;;;;;;;;;;7.12;81.97;100762.72;1084416;54;19950;-78
2022/09/21 04:20:26;;;;;;;;;;;;;;;7.12;81.91;100762.72;1084337;54;19946;-79
2022/09/21 04:21:28;;;;;;;;;;;;;;;7.12;82.12;100769.81;1084218;47;19970;-78
2022/09/21 04:22:31;;;;;;;;;;;;;;;7.11;82.25;100762.81;1084005;54;20058;-78
2022/09/21 04:23:33;;;;;;;;;;;;;;;7.13;82.26;100766.22;1083874;54;19947;-78
2022/09/21 04:24:38;;;;;;;;;;;;;;;7.13;81.88;100761.72;1084320;39;20321;-79
2022/09/21 04:25:40;;;;;;;;;;;;;;;7.18;82.00;100766.75;1083933;54;20014;-79
2022/09/21 04:26:44;;;;;;;;;;;;;;;7.21;81.73;100763.03;1084090;54;20492;-79
2022/09/21 04:27:45;;;;;;;;;;;;;;;7.19;81.71;100768.44;1084265;54;19955;-78
2022/09/21 04:28:49;;;;;;;;;;;;;;;7.17;81.67;100768.56;1084110;54;19947;-78
2022/09/21 04:29:53;;;;;;;;;;;;;;;7.16;81.70;100766.84;1084083;54;19947;-79
2022/09/21 04:30:54;;;;;;;;;;;;;;;7.13;81.85;100767.06;1083979;54;19946;-79
2022/09/21 04:31:58;;;;;;;;;;;;;;;7.09;82.14;100770.03;1083769;54;19951;-79
2022/09/21 04:33:01;;;;;;;;;;;;;;;7.08;82.16;100763.03;1083883;54;19973;-79
2022/09/21 04:34:02;;;;;;;;;;;;;;;7.10;81.82;100772.59;1083830;54;20441;-79
2022/09/21 04:35:09;;;;;;;;;;;;;;;7.09;82.02;100770.91;1084457;54;19957;-79
2022/09/21 04:36:10;;;;;;;;;;;;;;;7.13;81.76;100766.22;1084066;54;19946;-79
2022/09/21 04:37:14;;;;;;;;;;;;;;;7.13;81.65;100772.38;1084145;54;20485;-79
2022/09/21 04:38:15;;;;;;;;;;;;;;;7.14;81.46;100774.06;1084767;39;20699;-79
2022/09/21 04:39:19;;;;;;;;;;;;;;;7.13;81.25;100769.72;1084180;54;19950;-79
2022/09/21 04:40:22;;;;;;;;;;;;;;;7.11;81.72;100773.44;1084179;54;19969;-79
2022/09/21 04:41:25;;;;;;;;;;;;;;;7.09;81.86;100770.91;1084739;39;20392;-78
2022/09/21 04:42:27;;;;;;;;;;;;;;;7.07;81.96;100770.13;1084174;54;19958;-79
2022/09/21 04:43:31;;;;;;;;;;;;;;;7.04;81.89;100770.34;1084223;54;19947;-79
2022/09/21 04:44:32;;;;;;;;;;;;;;;7.00;82.09;100777.69;1084554;54;19950;-79
2022/09/21 04:45:35;;;;;;;;;;;;;;;7.02;82.16;100774.94;1083880;54;20038;-79
2022/09/21 04:46:37;;;;;;;;;;;;;;;7.00;82.20;100776.84;1084149;46;19946;-78
2022/09/21 04:47:41;;;;;;;;;;;;;;;6.98;82.13;100774.28;1084493;54;19951;-79
2022/09/21 04:48:42;;;;;;;;;;;;;;;6.92;82.03;100773.84;1085484;54;19958;-78
2022/09/21 04:49:45;;;;;;;;;;;;;;;6.87;82.19;100779.47;1085498;54;19953;-79
2022/09/21 04:50:50;;;;;;;;;;;;;;;6.88;82.69;100783.84;1085420;54;19958;-78
2022/09/21 04:51:53;;;;;;;;;;;;;;;6.85;82.40;100773.41;1084774;54;19970;-78
2022/09/21 04:52:57;;;;;;;;;;;;;;;6.82;82.68;100781.56;1084861;54;20790;-78
2022/09/21 04:53:58;;;;;;;;;;;;;;;6.81;82.64;100780.72;1087754;47;19953;-79
2022/09/21 04:55:02;;;;;;;;;;;;;;;6.75;82.70;100789.13;1087711;54;19935;-78
2022/09/21 04:56:04;;;;;;;;;;;;;;;6.75;83.13;100785.59;1087788;54;19939;-78
2022/09/21 04:57:08;;;;;;;;;;;;;;;6.68;83.16;100783.34;1087834;54;19974;-77
2022/09/21 04:58:09;;;;;;;;;;;;;;;6.71;83.12;100784.97;1088965;46;19958;-78
2022/09/21 04:59:12;;;;;;;;;;;;;;;6.78;82.76;100790.72;1087693;54;19939;-78
2022/09/21 05:00:19;;;;;;;;;;;;;;;6.74;82.92;100790.06;1087966;54;19943;-80
2022/09/21 05:01:23;;;;;;;;;;;;;;;6.67;82.89;100783.44;1087846;54;19986;-79
2022/09/21 05:02:24;;;;;;;;;;;;;;;6.63;82.90;100785.44;1087539;54;19973;-81
2022/09/21 05:03:28;;;;;;;;;;;;;;;6.62;83.17;100782.91;1088387;46;19985;-79
2022/09/21 05:04:29;;;;;;;;;;;;;;;6.64;83.15;100788.97;1088164;46;19939;-79
2022/09/21 05:05:34;;;;;;;;;;;;;;;6.62;83.12;100780.25;1087914;47;19970;-79
2022/09/21 05:06:37;;;;;;;;;;;;;;;6.68;83.17;100787.81;1088285;39;20304;-78
2022/09/21 05:07:43;;;;;;;;;;;;;;;6.71;82.92;100792.94;1087833;54;19954;-79
2022/09/21 05:10:03;;;;;;;;;;;;;;;6.73;82.66;100793.69;1087792;54;19961;-79
2022/09/21 05:11:08;;;;;;;;;;;;;;;6.74;82.67;100791.88;1088710;46;19966;-80
2022/09/21 05:12:12;;;;;;;;;;;;;;;6.63;83.31;100796.06;1087757;54;19998;-79
2022/09/21 05:13:13;;;;;;;;;;;;;;;6.62;82.94;100797.03;1087674;54;19962;-79
2022/09/21 05:14:17;;;;;;;;;;;;;;;6.63;83.00;100795.25;1087616;54;19982;-80
2022/09/21 05:15:21;;;;;;;;;;;;;;;6.63;83.18;100796.06;1087826;54;19966;-79
2022/09/21 05:16:24;;;;;;;;;;;;;;;6.64;83.12;100800.44;1087741;54;20467;-80
2022/09/21 05:17:25;;;;;;;;;;;;;;;6.64;83.49;100802.25;1087842;46;19957;-79
2022/09/21 05:18:29;;;;;;;;;;;;;;;6.70;83.56;100791.22;1087336;54;19947;-79
2022/09/21 05:19:30;;;;;;;;;;;;;;;6.71;83.07;100804.41;1088350;46;19953;-79
2022/09/21 05:20:34;;;;;;;;;;;;;;;6.73;82.97;100806.97;1088222;46;19946;-79
2022/09/21 05:21:38;;;;;;;;;;;;;;;6.70;82.98;100797.41;1088845;46;19951;-80
2022/09/21 05:22:41;;;;;;;;;;;;;;;6.72;83.43;100805.25;1087312;47;20260;-80
2022/09/21 05:23:42;;;;;;;;;;;;;;;6.71;83.14;100809.72;1087587;46;19956;-79
2022/09/21 05:24:47;;;;;;;;;;;;;;;6.74;82.91;100802.50;1086870;54;20250;-79
2022/09/21 05:25:48;;;;;;;;;;;;;;;6.68;83.16;100811.72;1086226;54;19950;-79
2022/09/21 05:26:52;;;;;;;;;;;;;;;6.71;83.45;100807.06;1084767;54;19958;-78
2022/09/21 05:27:53;;;;;;;;;;;;;;;6.74;83.46;100813.13;1084735;54;19972;-79
2022/09/21 05:28:57;;;;;;;;;;;;;;;6.72;83.18;100806.09;1084098;54;20019;-78
2022/09/21 05:30:01;;;;;;;;;;;;;;;6.70;83.18;100809.81;1083767;54;20907;-79
2022/09/21 05:31:08;;;;;;;;;;;;;;;6.74;83.23;100807.81;1084368;54;19954;-79
2022/09/21 05:32:15;;;;;;;;;;;;;;;6.75;82.93;100812.16;1084136;54;19950;-79
2022/09/21 05:33:19;;;;;;;;;;;;;;;6.75;83.01;100807.72;1084089;54;19959;-79
2022/09/21 05:34:31;;;;;;;;;;;;;;;6.75;83.05;100804.19;1084257;54;19950;-79
2022/09/21 05:35:36;;;;;;;;;;;;;;;6.76;82.94;100811.22;1084349;54;19946;-79
2022/09/21 05:36:46;;;;;;;;;;;;;;;6.78;82.93;100815.47;1084288;54;19973;-79
2022/09/21 05:37:53;;;;;;;;;;;;;;;6.82;82.72;100810.81;1084252;54;19963;-79
2022/09/21 05:38:55;;;;;;;;;;;;;;;6.83;82.54;100818.69;1084095;54;19938;-80
2022/09/21 05:39:59;;;;;;;;;;;;;;;6.80;82.54;100818.06;1084183;54;20033;-79
2022/09/21 05:41:01;;;;;;;;;;;;;;;6.76;82.98;100819.19;1083345;54;20034;-79
2022/09/21 05:42:05;;;;;;;;;;;;;;;6.77;82.96;100826.22;1084076;54;19946;-79